Airfield :
LOGIN :

Register | Disclaimer

   EN    FR    IT 

 










Legend :    VFR   Marginal VFR   IFR   Intensive IFR   Very Intensive IFR
Visi :
Ceiling :
>= 8 km
>= 3000ft
5 to 8 km
1000 to 3000 ft
1500m to 5 km
500 to 1000 ft
800 to 1500m
200 to 500 ft
< 800m
< 200 ft
Symbols :   Thunderstorms  Fog  Heavy snow  Heavy precipitations  Wind > 20 kt
SIGMETs :     Misc.  Thunderstorms  Icing  Turbulence  Mountain Waves  Volcanic Ashes







- Airport Elevation : 12 ft
- IATA code : BCN


LEBL - Barcelone

CURRENT METAR :
  • 201300Z 21009KT 180V240 9999 FEW030 18/11 Q1012 NOSIG

EXPIRED METARs :
  • 201230Z 20010KT 170V230 9999 FEW030 17/10 Q1012 NOSIG
  • 201200Z 21011KT 9999 FEW030 17/10 Q1012 NOSIG
  • 201130Z 20011KT 160V240 9999 FEW030 18/10 Q1012 NOSIG
  • 201100Z 21010KT 170V240 9999 FEW030 17/10 Q1012 NOSIG
  • 201030Z 34006G19KT 290V010 9999 FEW030 19/09 Q1012 NOSIG

TAF TAF LEBL
Valid from the 20 at 12:00 until the 21 at 12:00 UTC


201100Z 2012/2112 16008KT 9999 SCT030 TX20/2012Z TN12/2106Z
BECMG 2014/2016 13007KT
BECMG 2016/2018 07006KT
BECMG 2020/2022 35005KT
BECMG 2106/2109 20010KT
No reported NOTAMs for that airfield.



MET'MAP, your aeronautical weather chart ! - Copyright ORBIFLY December 2007 - Disclaimer

ORBIFLY MET'MAP TEAM :

Programming & Development : Alexandra Zaïnal
Concept & Development : Baudouin d'Aumeries
Co-Development & Prog : Marc-Olivier Méhu
Technical & hardware support : Manuel Goepfert

Contact : metmap@orbifly.com




SOURCES & CREDITS :

   NOAA